Terminal Aerodrome Forecast
Issued by NWS

Home | Current Version | Previous Version | Text Only | Print | Product List | Glossary Off
Versions: 1 2 3 4 5 6 7 8 9 10 11 12 13 14 15

269
FTUS43 KGRB 101134
TAFCWA
TAF
KCWA 101134Z 1012/1112 33009G16KT P6SM OVC025
     FM101700 32008KT P6SM BKN035
     FM110200 31004KT P6SM SCT100=

USA.gov is the U.S. government's official web portal to all federal, state and local government web resources and services.